createdAt,value
2019-04-16T00:01:11.298Z,99291.82
2019-04-16T00:03:43.550Z,99280.72
2019-04-16T00:06:35.271Z,99282.70
2019-04-16T00:09:14.289Z,99277.89
2019-04-16T00:11:58.758Z,99272.52
2019-04-16T00:14:36.099Z,99269.25
2019-04-16T00:17:06.496Z,99271.94
2019-04-16T00:19:35.660Z,99269.16
2019-04-16T00:22:13.352Z,99269.05
2019-04-16T00:24:46.424Z,99267.13
2019-04-16T00:27:17.353Z,99265.38
2019-04-16T00:29:46.511Z,99263.72
2019-04-16T00:32:25.917Z,99257.52
2019-04-16T00:34:55.515Z,99260.83
2019-04-16T00:37:26.551Z,99257.16
2019-04-16T00:39:58.323Z,99254.55
2019-04-16T00:42:28.546Z,99258.98
2019-04-16T00:44:58.335Z,99253.56
2019-04-16T00:47:27.932Z,99251.68
2019-04-16T00:49:58.852Z,99254.55
2019-04-16T00:52:30.353Z,99259.35
2019-04-16T00:55:00.058Z,99252.05
2019-04-16T00:57:31.637Z,99257.41
2019-04-16T01:00:01.355Z,99255.24
2019-04-16T01:02:32.485Z,99252.89
2019-04-16T01:05:05.119Z,99254.22
2019-04-16T01:07:37.940Z,99254.69
2019-04-16T01:10:08.677Z,99252.84
2019-04-16T01:12:39.125Z,99253.14
2019-04-16T01:15:08.856Z,99259.91
2019-04-16T01:17:38.290Z,99262.52
2019-04-16T01:20:11.811Z,99251.88
2019-04-16T01:22:39.679Z,99255.28
2019-04-16T01:25:12.082Z,99261.42
2019-04-16T01:27:48.762Z,99261.25
2019-04-16T01:30:24.041Z,99253.80
2019-04-16T01:33:08.559Z,99256.23
2019-04-16T01:36:00.087Z,99259.80
2019-04-16T01:38:40.325Z,99259.42
2019-04-16T01:41:14.519Z,99257.72
2019-04-16T01:43:47.062Z,99257.55
2019-04-16T01:46:18.343Z,99259.12
2019-04-16T01:48:48.465Z,99253.04
2019-04-16T01:51:18.428Z,99255.24
2019-04-16T01:53:52.331Z,99250.36
2019-04-16T01:56:22.620Z,99251.34
2019-04-16T01:58:54.042Z,99252.80
2019-04-16T02:01:25.357Z,99245.92
2019-04-16T02:03:55.631Z,99246.77
2019-04-16T02:06:26.545Z,99240.42
2019-04-16T02:08:56.310Z,99249.78
2019-04-16T02:11:26.028Z,99249.78
2019-04-16T02:13:58.220Z,99249.31
2019-04-16T02:16:32.974Z,99249.28
2019-04-16T02:19:05.637Z,99240.15
2019-04-16T02:21:39.037Z,99243.55
2019-04-16T02:24:07.821Z,99247.05
2019-04-16T02:26:41.425Z,99235.25
2019-04-16T02:29:10.863Z,99240.85
2019-04-16T02:31:42.327Z,99238.89
2019-04-16T02:34:16.310Z,99233.55
2019-04-16T02:36:49.189Z,99230.61
2019-04-16T02:39:22.529Z,99230.77
2019-04-16T02:41:56.794Z,99226.42
2019-04-16T02:44:27.252Z,99229.91
2019-04-16T02:46:56.875Z,99221.29
2019-04-16T02:49:29.209Z,99217.50
2019-04-16T02:52:17.381Z,99219.28
2019-04-16T02:54:58.007Z,99215.95
2019-04-16T02:57:38.034Z,99208.00
2019-04-16T03:00:33.505Z,99203.56
2019-04-16T03:03:08.610Z,99207.16
2019-04-16T03:05:41.771Z,99209.91
2019-04-16T03:08:11.599Z,99204.84
2019-04-16T03:10:44.663Z,99209.29
2019-04-16T03:13:17.017Z,99203.38
2019-04-16T03:16:06.006Z,99205.20
2019-04-16T03:19:06.001Z,99199.52
2019-04-16T03:21:36.717Z,99200.20
2019-04-16T03:24:09.065Z,99202.95
2019-04-16T03:26:44.227Z,99198.23
2019-04-16T03:29:13.386Z,99188.67
2019-04-16T03:31:43.855Z,99196.07
2019-04-16T03:34:21.884Z,99191.66
2019-04-16T03:36:52.586Z,99188.64
2019-04-16T03:39:22.360Z,99187.75
2019-04-16T03:41:55.928Z,99183.84
2019-04-16T03:44:24.038Z,99178.66
2019-04-16T03:46:57.145Z,99182.80
2019-04-16T03:49:28.511Z,99181.82
2019-04-16T03:51:57.908Z,99180.38
2019-04-16T03:54:28.129Z,99173.34
2019-04-16T03:57:01.852Z,99176.92
2019-04-16T03:59:33.774Z,99177.83
2019-04-16T04:02:05.148Z,99176.59
2019-04-16T04:04:36.472Z,99170.81
2019-04-16T04:07:09.057Z,99174.15
2019-04-16T04:09:38.919Z,99166.58
2019-04-16T04:12:13.016Z,99170.11
2019-04-16T04:14:46.336Z,99175.66
2019-04-16T04:17:16.404Z,99177.98
2019-04-16T04:19:46.919Z,99169.42
2019-04-16T04:22:16.587Z,99172.64
2019-04-16T04:25:03.892Z,99171.74
2019-04-16T04:27:29.681Z,99169.89
2019-04-16T04:30:06.240Z,99166.53
2019-04-16T04:32:36.297Z,99176.97
2019-04-16T04:35:07.344Z,99178.02
2019-04-16T04:37:46.342Z,99180.41
2019-04-16T04:40:17.122Z,99175.45
2019-04-16T04:42:46.513Z,99179.32
2019-04-16T04:45:15.986Z,99178.47
2019-04-16T04:47:45.126Z,99180.92
2019-04-16T04:50:14.418Z,99184.53
2019-04-16T04:52:46.157Z,99181.33
2019-04-16T04:55:15.327Z,99188.02
2019-04-16T04:57:45.936Z,99184.80
2019-04-16T05:00:17.395Z,99176.59
2019-04-16T05:02:47.454Z,99186.52
2019-04-16T05:05:25.805Z,99185.98
2019-04-16T05:07:59.683Z,99189.61
2019-04-16T05:10:42.813Z,99189.47
2019-04-16T05:13:14.182Z,99191.84
2019-04-16T05:15:43.465Z,99191.84
2019-04-16T05:18:13.745Z,99195.95
2019-04-16T05:20:46.713Z,99192.99
2019-04-16T05:23:14.686Z,99194.59
2019-04-16T05:25:43.893Z,99202.58
2019-04-16T05:28:13.474Z,99198.57
2019-04-16T05:30:52.320Z,99204.72
2019-04-16T05:33:22.135Z,99197.42
2019-04-16T05:35:51.878Z,99204.65
2019-04-16T05:38:23.793Z,99195.11
2019-04-16T05:40:52.042Z,99197.42
2019-04-16T05:43:30.041Z,99202.06
2019-04-16T05:45:56.238Z,99196.56
2019-04-16T05:48:25.566Z,99204.57
2019-04-16T05:50:59.694Z,99204.08
2019-04-16T05:53:30.121Z,99204.62
2019-04-16T05:56:06.099Z,99203.75
2019-04-16T05:58:36.041Z,99207.36
2019-04-16T06:01:20.458Z,99213.30
2019-04-16T06:03:52.810Z,99212.39
2019-04-16T06:06:21.292Z,99209.41
2019-04-16T06:08:51.688Z,99213.45
2019-04-16T06:11:35.737Z,99210.00
2019-04-16T06:14:19.307Z,99208.78
2019-04-16T06:17:08.630Z,99208.78
2019-04-16T06:20:13.237Z,99214.66
2019-04-16T06:22:52.601Z,99214.05
2019-04-16T06:25:35.438Z,99217.22
2019-04-16T06:28:24.785Z,99219.41
2019-04-16T06:31:10.107Z,99222.28
2019-04-16T06:33:57.288Z,99221.96
2019-04-16T06:36:43.907Z,99226.46
2019-04-16T06:39:32.048Z,99227.22
2019-04-16T06:42:22.458Z,99227.20
2019-04-16T06:44:53.398Z,99226.25
2019-04-16T06:47:45.001Z,99229.47
2019-04-16T06:50:40.495Z,99226.25
2019-04-16T06:53:23.809Z,99219.23
2019-04-16T06:56:13.800Z,99227.22
2019-04-16T06:58:57.239Z,99219.56
2019-04-16T07:01:41.478Z,99220.48
2019-04-16T07:04:18.140Z,99222.53
2019-04-16T07:07:08.575Z,99211.27
2019-04-16T07:09:45.907Z,99215.89
2019-04-16T07:12:23.520Z,99217.30
2019-04-16T07:14:53.002Z,99221.04
2019-04-16T07:17:22.521Z,99220.22
2019-04-16T07:19:52.876Z,99217.21
2019-04-16T07:22:22.269Z,99217.52
2019-04-16T07:24:56.604Z,99210.56
2019-04-16T07:27:36.131Z,99216.80
2019-04-16T07:30:08.669Z,99210.46
2019-04-16T07:32:47.497Z,99219.91
2019-04-16T07:35:49.616Z,99218.95
2019-04-16T07:38:24.650Z,99216.27
2019-04-16T07:41:16.824Z,99213.13
2019-04-16T07:44:22.317Z,99212.86
2019-04-16T07:47:14.036Z,99203.72
2019-04-16T07:49:50.063Z,99208.27
2019-04-16T07:52:42.631Z,99204.42
2019-04-16T07:55:36.296Z,99196.61
2019-04-16T07:58:07.962Z,99194.05
2019-04-16T08:00:41.302Z,99195.56
2019-04-16T08:03:09.734Z,99186.47
2019-04-16T08:05:41.976Z,99179.82
2019-04-16T08:08:11.447Z,99176.53
2019-04-16T08:10:44.368Z,99182.98
2019-04-16T08:13:27.623Z,99181.08
2019-04-16T08:16:02.729Z,99180.27
2019-04-16T08:18:32.611Z,99182.97
2019-04-16T08:21:10.188Z,99176.77
2019-04-16T08:23:39.087Z,99172.70
2019-04-16T08:26:11.937Z,99170.20
2019-04-16T08:28:39.372Z,99164.95
2019-04-16T08:31:13.257Z,99172.69
2019-04-16T08:33:55.869Z,99167.60
2019-04-16T08:36:26.264Z,99163.20
2019-04-16T08:38:57.143Z,99167.84
2019-04-16T08:41:27.411Z,99165.47
2019-04-16T08:44:04.605Z,99165.20
2019-04-16T08:46:34.773Z,99163.17
2019-04-16T08:49:04.439Z,99158.83
2019-04-16T08:51:37.009Z,99158.22
2019-04-16T08:54:04.764Z,99153.87
2019-04-16T08:56:33.995Z,99153.28
2019-04-16T08:59:03.214Z,99152.30
2019-04-16T09:01:34.813Z,99154.92
2019-04-16T09:04:05.097Z,99161.95
2019-04-16T09:06:34.553Z,99153.46
2019-04-16T09:09:18.046Z,99149.95
2019-04-16T09:11:48.605Z,99159.10
2019-04-16T09:14:26.651Z,99150.37
2019-04-16T09:17:17.843Z,99146.61
2019-04-16T09:19:52.877Z,99140.56
2019-04-16T09:22:49.077Z,99143.57
2019-04-16T09:25:54.100Z,99136.94
2019-04-16T09:28:41.455Z,99135.50
2019-04-16T09:31:30.889Z,99132.76
2019-04-16T09:34:19.156Z,99136.20
2019-04-16T09:37:16.333Z,99134.62
2019-04-16T09:40:01.115Z,99131.63
2019-04-16T09:42:38.318Z,99131.58
2019-04-16T09:45:18.455Z,99127.69
2019-04-16T09:47:48.308Z,99118.23
2019-04-16T09:50:17.534Z,99125.68
2019-04-16T09:52:48.242Z,99126.73
2019-04-16T09:55:19.592Z,99125.39
2019-04-16T09:57:49.106Z,99117.57
2019-04-16T10:00:24.358Z,99120.22
2019-04-16T10:02:55.269Z,99120.67
2019-04-16T10:05:26.493Z,99114.77
2019-04-16T10:07:57.061Z,99107.44
2019-04-16T10:10:28.297Z,99111.89
2019-04-16T10:12:57.572Z,99108.06
2019-04-16T10:15:26.755Z,99110.86
2019-04-16T10:17:58.616Z,99109.73
2019-04-16T10:20:26.956Z,99112.36
2019-04-16T10:22:56.209Z,99102.79
2019-04-16T10:25:25.435Z,99103.28
2019-04-16T10:28:01.961Z,99105.91
2019-04-16T10:30:39.838Z,99101.48
2019-04-16T10:33:10.000Z,99103.16
2019-04-16T10:35:40.573Z,99101.72
2019-04-16T10:38:27.908Z,99098.14
2019-04-16T10:41:03.416Z,99095.96
2019-04-16T10:43:50.432Z,99088.58
2019-04-16T10:46:44.460Z,99084.38
2019-04-16T10:49:34.840Z,99083.69
2019-04-16T10:52:17.281Z,99075.64
2019-04-16T10:55:05.402Z,99072.72
2019-04-16T10:57:43.969Z,99080.42
2019-04-16T11:00:44.881Z,99079.91
2019-04-16T11:03:19.699Z,99073.98
2019-04-16T11:05:59.430Z,99070.62
2019-04-16T11:08:29.483Z,99066.19
2019-04-16T11:11:02.387Z,99069.61
2019-04-16T11:13:58.573Z,99068.27
2019-04-16T11:19:10.921Z,99056.59
2019-04-16T11:22:03.870Z,99062.39
2019-04-16T11:24:34.117Z,99061.30
2019-04-16T11:27:04.703Z,99049.37
2019-04-16T11:29:34.257Z,99068.50
2019-04-16T11:32:04.500Z,99065.47
2019-04-16T11:34:35.798Z,99057.90
2019-04-16T11:37:08.058Z,99054.45
2019-04-16T11:39:37.253Z,99055.09
2019-04-16T11:42:06.885Z,99065.89
2019-04-16T11:44:36.932Z,99064.83
2019-04-16T11:47:07.566Z,99058.19
2019-04-16T11:49:37.676Z,99056.59
2019-04-16T11:52:07.613Z,99044.52
2019-04-16T11:54:37.609Z,99045.50
2019-04-16T11:57:07.275Z,99047.58
2019-04-16T11:59:38.333Z,99051.45
2019-04-16T12:02:14.229Z,99053.82
2019-04-16T12:05:17.473Z,99057.39
2019-04-16T12:08:14.014Z,99045.95
2019-04-16T12:11:21.017Z,99059.00
2019-04-16T12:14:09.954Z,99062.03
2019-04-16T12:16:48.855Z,99066.42
2019-04-16T12:19:37.975Z,99061.40
2019-04-16T12:22:27.362Z,99055.67
2019-04-16T12:25:16.761Z,99058.86
2019-04-16T12:28:12.624Z,99061.84
2019-04-16T12:30:57.298Z,99060.22
2019-04-16T12:33:44.114Z,99058.88
2019-04-16T12:36:23.697Z,99058.86
2019-04-16T12:39:10.630Z,99041.42
2019-04-16T12:41:51.616Z,99052.72
2019-04-16T12:44:44.556Z,99053.52
2019-04-16T12:47:16.806Z,99050.97
2019-04-16T12:49:53.379Z,99052.64
2019-04-16T12:52:28.494Z,99056.52
2019-04-16T12:55:14.261Z,99048.39
2019-04-16T12:58:11.952Z,99054.27
2019-04-16T13:01:11.098Z,99057.48
2019-04-16T13:04:01.196Z,99044.27
2019-04-16T13:06:40.475Z,99039.81
2019-04-16T13:09:49.995Z,99042.10
2019-04-16T13:12:38.854Z,99042.69
2019-04-16T13:15:22.265Z,99044.84
2019-04-16T13:18:04.006Z,99040.37
2019-04-16T13:21:06.426Z,99047.53
2019-04-16T13:23:41.100Z,99043.66
2019-04-16T13:26:31.163Z,99046.39
2019-04-16T13:29:02.086Z,99044.27
2019-04-16T13:31:32.122Z,99039.66
2019-04-16T13:34:02.419Z,99031.90
2019-04-16T13:36:32.168Z,99031.90
2019-04-16T13:39:19.003Z,99039.45
2019-04-16T13:41:48.486Z,99046.53
2019-04-16T13:44:18.965Z,99039.28
2019-04-16T13:46:52.371Z,99028.34
2019-04-16T13:49:36.363Z,99040.03
2019-04-16T13:52:08.332Z,99029.06
2019-04-16T13:55:02.259Z,99029.34
2019-04-16T13:57:32.740Z,99019.26
2019-04-16T14:00:13.647Z,99022.00
2019-04-16T14:02:55.158Z,99013.22
2019-04-16T14:05:28.081Z,99028.62
2019-04-16T14:07:57.881Z,99024.69
2019-04-16T14:10:27.314Z,99020.70
2019-04-16T14:12:57.020Z,99023.16
2019-04-16T14:15:32.375Z,99026.53
2019-04-16T14:18:03.213Z,99024.22
2019-04-16T14:20:32.920Z,99023.64
2019-04-16T14:23:05.681Z,99027.94
2019-04-16T14:25:36.962Z,99025.55
2019-04-16T14:28:06.402Z,99029.57
2019-04-16T14:30:42.690Z,99030.63
2019-04-16T14:33:16.935Z,99026.34
2019-04-16T14:35:51.002Z,99031.59
2019-04-16T14:38:27.597Z,99031.27
2019-04-16T14:40:56.890Z,99027.03
2019-04-16T14:43:33.704Z,99019.39
2019-04-16T14:46:02.910Z,99029.73
2019-04-16T14:48:32.747Z,99025.75
2019-04-16T14:51:01.955Z,99019.48
2019-04-16T14:53:53.461Z,99032.57
2019-04-16T14:56:37.790Z,99026.41
2019-04-16T14:59:35.201Z,99027.27
2019-04-16T15:02:22.815Z,99013.36
2019-04-16T15:05:20.750Z,99018.14
2019-04-16T15:08:09.614Z,99023.03
2019-04-16T15:10:58.904Z,99024.78
2019-04-16T15:13:59.186Z,99013.78
2019-04-16T15:16:50.632Z,99026.51
2019-04-16T15:19:37.183Z,99017.97
2019-04-16T15:22:36.311Z,99021.17
2019-04-16T15:25:38.589Z,99023.00
2019-04-16T15:28:19.614Z,99019.67
2019-04-16T15:31:05.692Z,99020.45
2019-04-16T15:33:59.968Z,99015.27
2019-04-16T15:36:32.412Z,99012.20
2019-04-16T15:39:11.277Z,99015.91
2019-04-16T15:42:01.110Z,99020.63
2019-04-16T15:44:41.386Z,99017.63
2019-04-16T15:47:34.510Z,99027.73
2019-04-16T15:50:12.979Z,99029.78
2019-04-16T15:52:59.065Z,99027.91
2019-04-16T15:55:47.486Z,99034.28
2019-04-16T15:58:36.216Z,99024.86
2019-04-16T16:01:21.825Z,99030.55
2019-04-16T16:04:09.737Z,99034.82
2019-04-16T16:06:57.785Z,99026.72
2019-04-16T16:09:41.060Z,99029.56
2019-04-16T16:12:22.254Z,99027.98
2019-04-16T16:14:57.736Z,99030.67
2019-04-16T16:17:31.722Z,99024.70
2019-04-16T16:20:02.204Z,99023.15
2019-04-16T16:22:38.578Z,99029.40
2019-04-16T16:25:09.382Z,99027.38
2019-04-16T16:27:42.607Z,99037.90
2019-04-16T16:30:14.451Z,99033.44
2019-04-16T16:32:41.856Z,99032.27
2019-04-16T16:35:16.942Z,99037.84
2019-04-16T16:37:45.091Z,99042.55
2019-04-16T16:40:16.236Z,99038.13
2019-04-16T16:42:47.119Z,99046.83
2019-04-16T16:45:20.273Z,99043.81
2019-04-16T16:47:52.758Z,99049.89
2019-04-16T16:50:23.409Z,99047.12
2019-04-16T16:52:57.796Z,99049.78
2019-04-16T16:55:54.765Z,99051.98
2019-04-16T16:58:46.811Z,99053.58
2019-04-16T17:01:37.511Z,99051.94
2019-04-16T17:04:15.625Z,99057.21
2019-04-16T17:06:44.802Z,99059.83
2019-04-16T17:09:30.406Z,99059.98
2019-04-16T17:11:59.092Z,99056.19
2019-04-16T17:14:28.253Z,99058.88
2019-04-16T17:17:11.782Z,99066.67
2019-04-16T17:19:28.654Z,99065.08
2019-04-16T17:21:57.828Z,99065.28
2019-04-16T17:24:27.351Z,99064.13
2019-04-16T17:26:57.343Z,99065.95
2019-04-16T17:29:27.643Z,99071.42
2019-04-16T17:31:57.120Z,99070.43
2019-04-16T17:34:27.147Z,99073.77
2019-04-16T17:36:56.445Z,99078.29
2019-04-16T17:39:47.818Z,99084.19
2019-04-16T17:42:18.352Z,99084.19
2019-04-16T17:45:05.216Z,99089.56
2019-04-16T17:47:56.474Z,99091.23
2019-04-16T17:50:42.093Z,99089.56
2019-04-16T17:53:30.206Z,99085.58
2019-04-16T17:56:20.469Z,99093.23
2019-04-16T17:58:58.112Z,99103.22
2019-04-16T18:01:56.786Z,99095.17
2019-04-16T18:04:45.423Z,99098.59
2019-04-16T18:07:34.617Z,99109.67
2019-04-16T18:10:26.853Z,99112.07
2019-04-16T18:13:14.114Z,99109.67
2019-04-16T18:15:53.304Z,99117.59
2019-04-16T18:18:26.713Z,99120.20
2019-04-16T18:21:24.218Z,99123.58
2019-04-16T18:24:12.012Z,99119.56
2019-04-16T18:26:59.972Z,99126.56
2019-04-16T18:29:41.525Z,99132.23
2019-04-16T18:32:30.867Z,99133.96
2019-04-16T18:35:19.572Z,99132.16
2019-04-16T18:38:15.818Z,99138.30
2019-04-16T18:40:52.427Z,99139.33
2019-04-16T18:43:54.279Z,99145.28
2019-04-16T18:46:41.978Z,99149.09
2019-04-16T18:49:17.536Z,99150.91
2019-04-16T18:51:52.276Z,99152.03
2019-04-16T18:54:22.228Z,99156.38
2019-04-16T18:56:54.773Z,99154.70
2019-04-16T18:59:25.045Z,99156.53
2019-04-16T19:02:00.029Z,99166.61
2019-04-16T19:04:32.291Z,99167.66
2019-04-16T19:07:01.588Z,99165.48
2019-04-16T19:09:30.772Z,99172.12
2019-04-16T19:12:00.664Z,99174.51
2019-04-16T19:14:29.859Z,99177.54
2019-04-16T19:16:59.063Z,99182.19
2019-04-16T19:19:29.073Z,99188.20
2019-04-16T19:21:58.523Z,99193.36
2019-04-16T19:24:28.054Z,99190.69
2019-04-16T19:27:00.721Z,99192.70
2019-04-16T19:29:31.294Z,99193.92
2019-04-16T19:32:12.231Z,99192.02
2019-04-16T19:34:41.894Z,99200.64
2019-04-16T19:37:12.267Z,99201.34
2019-04-16T19:39:43.731Z,99197.80
2019-04-16T19:42:16.495Z,99193.80
2019-04-16T19:44:48.138Z,99197.10
2019-04-16T19:47:19.556Z,99202.23
2019-04-16T19:49:51.560Z,99202.38
2019-04-16T19:52:24.082Z,99210.61
2019-04-16T19:54:57.456Z,99215.57
2019-04-16T19:57:27.937Z,99219.45
2019-04-16T19:59:57.367Z,99224.75
2019-04-16T20:02:33.243Z,99232.09
2019-04-16T20:05:05.526Z,99230.92
2019-04-16T20:07:35.672Z,99236.27
2019-04-16T20:10:06.048Z,99234.09
2019-04-16T20:12:42.535Z,99236.09
2019-04-16T20:15:15.131Z,99237.84
2019-04-16T20:17:46.202Z,99245.29
2019-04-16T20:20:24.867Z,99238.27
2019-04-16T20:22:56.020Z,99240.63
2019-04-16T20:25:25.266Z,99245.41
2019-04-16T20:27:58.287Z,99247.81
2019-04-16T20:30:27.825Z,99255.41
2019-04-16T20:33:01.811Z,99262.30
2019-04-16T20:35:32.631Z,99263.01
2019-04-16T20:38:05.861Z,99259.80
2019-04-16T20:40:37.132Z,99262.08
2019-04-16T20:43:09.976Z,99260.74
2019-04-16T20:45:40.856Z,99263.91
2019-04-16T20:48:12.489Z,99261.98
2019-04-16T20:50:42.121Z,99264.66
2019-04-16T20:53:13.367Z,99269.63
2019-04-16T20:55:47.073Z,99266.67
2019-04-16T20:58:14.867Z,99265.94
2019-04-16T21:00:46.673Z,99269.14
2019-04-16T21:03:22.264Z,99267.84
2019-04-16T21:05:57.913Z,99265.59
2019-04-16T21:08:24.249Z,99265.84
2019-04-16T21:10:51.796Z,99269.83
2019-04-16T21:13:21.206Z,99273.70
2019-04-16T21:15:50.406Z,99272.39
2019-04-16T21:18:21.693Z,99271.64
2019-04-16T21:20:52.803Z,99274.56
2019-04-16T21:23:22.562Z,99271.40
2019-04-16T21:25:53.305Z,99269.58
2019-04-16T21:28:36.561Z,99276.72
2019-04-16T21:31:23.888Z,99278.91
2019-04-16T21:34:24.214Z,99274.19
2019-04-16T21:37:17.242Z,99280.34
2019-04-16T21:39:55.981Z,99279.28
2019-04-16T21:42:34.475Z,99285.46
2019-04-16T21:45:03.158Z,99288.00
2019-04-16T21:47:33.077Z,99288.25
2019-04-16T21:50:02.491Z,99295.52
2019-04-16T21:52:31.713Z,99296.23
2019-04-16T21:55:04.650Z,99296.00
2019-04-16T21:57:33.694Z,99294.45
2019-04-16T22:00:04.771Z,99302.81
2019-04-16T22:02:37.961Z,99297.70
2019-04-16T22:05:09.421Z,99302.20
2019-04-16T22:07:49.314Z,99302.69
2019-04-16T22:10:21.481Z,99303.15
2019-04-16T22:12:51.400Z,99305.22
2019-04-16T22:15:25.174Z,99313.09
2019-04-16T22:17:54.211Z,99314.69
2019-04-16T22:20:24.687Z,99329.95
2019-04-16T22:22:54.218Z,99334.55
2019-04-16T22:25:26.529Z,99333.68
2019-04-16T22:27:55.459Z,99330.14
2019-04-16T22:30:25.191Z,99333.19
2019-04-16T22:32:54.417Z,99330.66
2019-04-16T22:35:23.927Z,99333.93
2019-04-16T22:37:55.146Z,99333.21
2019-04-16T22:40:45.936Z,99336.83
2019-04-16T22:43:36.053Z,99324.13
2019-04-16T22:46:24.257Z,99330.91
2019-04-16T22:49:00.544Z,99330.14
2019-04-16T22:51:46.405Z,99336.27
2019-04-16T22:54:17.654Z,99342.69
2019-04-16T22:57:11.089Z,99342.94
2019-04-16T22:59:44.213Z,99339.55
2019-04-16T23:02:19.946Z,99352.56
2019-04-16T23:04:51.680Z,99354.34
2019-04-16T23:07:20.862Z,99360.25
2019-04-16T23:09:50.074Z,99366.33
2019-04-16T23:12:19.274Z,99360.02
2019-04-16T23:14:52.574Z,99368.67
2019-04-16T23:17:26.071Z,99367.14
2019-04-16T23:19:56.192Z,99374.00
2019-04-16T23:22:25.876Z,99375.17
2019-04-16T23:25:01.307Z,99373.30
2019-04-16T23:27:30.969Z,99369.92
2019-04-16T23:30:04.094Z,99374.67
2019-04-16T23:32:34.642Z,99371.89
2019-04-16T23:35:10.800Z,99381.70
2019-04-16T23:37:40.159Z,99377.34
2019-04-16T23:40:12.145Z,99375.52
2019-04-16T23:42:57.982Z,99376.97
2019-04-16T23:45:38.294Z,99377.09
2019-04-16T23:48:22.269Z,99378.61
2019-04-16T23:51:01.335Z,99377.83
2019-04-16T23:53:53.461Z,99375.47
2019-04-16T23:56:41.532Z,99370.75
2019-04-16T23:59:27.637Z,99366.05
